Create Tblcommutelog Verified Points Advance Search
| # | Trip ID | Id Commuter | Trip Date | Trip Num | Current Lat | Current Lng | Delta Distance | Current Time | Activity | Activity Confidence | Current Speed | |
|---|---|---|---|---|---|---|---|---|---|---|---|---|
| 71861 | 250624_769092_16489920_0810 | 769092 | (not set) | (not set) | 38.801779391691 | -77.513669532743 | 7.4612 | 2025-06-24 12:23:11.28 | in_vehicle | 100 | 2.8431696871619 | |
| 71862 | 250624_769783_16441814_0758 | 769783 | (not set) | (not set) | 38.904553381416 | -77.022078088668 | 5.889 | 2025-06-24 12:23:12.05 | still | 100 | -0.44703925898772 | |
| 71863 | 250624_770933_16500693_0746 | 770933 | (not set) | (not set) | 38.888206195992 | -77.162235944582 | 12.9963 | 2025-06-24 12:23:14.2 | unknown | 100 | 11.158099904334 | |
| 71864 | 250624_785987_16514396_0739 | 785987 | (not set) | (not set) | 39.080464166667 | -76.627209166667 | 21.4901 | 2025-06-24 12:23:15.14 | still | 33 | 8.7172655502606 | |
| 71865 | 250624_739501_16500693_0817 | 739501 | (not set) | (not set) | 38.832863935913 | -77.047252810324 | 2.1347 | 2025-06-24 12:23:15.2 | in_vehicle | 100 | 11.824188400225 | |
| 71866 | 250624_785785_6461772_0807 | 785785 | (not set) | (not set) | 38.886385569783 | -77.15863229945 | 6.0234 | 2025-06-24 12:23:15.372 | in_vehicle | 100 | 14.19796686545 | |
| 71867 | 250624_780813_16421763_0722 | 780813 | (not set) | (not set) | 38.846075720647 | -77.079919814206 | 15.0879 | 2025-06-24 12:23:16.183 | in_vehicle | 100 | 11.086573622896 | |
| 71868 | 250624_700992_16414139_0803 | 700992 | (not set) | (not set) | 39.096066168316 | -77.177207682435 | 8.8941 | 2025-06-24 12:23:16.203 | in_vehicle | 100 | 3.7819521310361 | |
| 71869 | 250624_770658_6426227_0812 | 770658 | (not set) | (not set) | 38.899341718524 | -77.088790122574 | 2.822 | 2025-06-24 12:23:16.382 | in_vehicle | 100 | 7.8991837063131 | |
| 71870 | 250624_775218_6438355_0810 | 775218 | (not set) | (not set) | 38.901480151721 | -77.041756813025 | 0.7694 | 2025-06-24 12:23:16.915 | on_foot | 100 | -0.44703925898772 | |
| 71871 | 250624_779990_16500693_0756 | 779990 | (not set) | (not set) | 38.849657159944 | -77.076901869451 | 1.7028 | 2025-06-24 12:23:17.92 | in_vehicle | 100 | -0.44703925898772 | |
| 71872 | 250624_785938_16430117_0811 | 785938 | (not set) | (not set) | 39.357293118232 | -76.650089724666 | 2.3483 | 2025-06-24 12:23:18.366 | in_vehicle | 100 | 10.997165771098 | |
| 71873 | 250624_780745_16421763_0747 | 780745 | (not set) | (not set) | 38.98207519301 | -77.447004509319 | 13.0854 | 2025-06-24 12:23:19.202 | in_vehicle | 100 | 8.9631371427039 | |
| 71874 | 250624_778823_16501007_0747 | 778823 | (not set) | (not set) | 38.944259709506 | -76.946941744431 | 5.0384 | 2025-06-24 12:23:19.285 | in_vehicle | 100 | 6.4284245442435 | |
| 71875 | 250624_781766_16459526_0803 | 781766 | (not set) | (not set) | 39.026650477296 | -77.394864997274 | 5.9717 | 2025-06-24 12:23:19.508 | in_vehicle | 100 | 7.2912103140898 | |
| 71876 | 250624_739501_16500693_0817 | 739501 | (not set) | (not set) | 38.835714780878 | -77.046972432406 | 2.3319 | 2025-06-24 12:23:22.205 | in_vehicle | 100 | 11.29668207462 | |
| 71877 | 250624_781475_6438355_0808 | 781475 | (not set) | (not set) | 39.048749019661 | -77.07557276348 | 6.9574 | 2025-06-24 12:23:23.19 | in_vehicle | 100 | 7.4208516991962 | |
| 71878 | 250624_785985_16430117_0811 | 785985 | (not set) | (not set) | 39.35627315481 | -76.649902349506 | 2.2125 | 2025-06-24 12:23:23.339 | unknown | 100 | 10.626123186138 | |
| 71879 | 250624_785987_16514396_0739 | 785987 | (not set) | (not set) | 39.079064166667 | -76.627890833333 | 21.5934 | 2025-06-24 12:23:24.434 | in_vehicle | 100 | 6.736881632945 | |
| 71880 | 250624_770164_16511074_0748 | 770164 | (not set) | (not set) | 38.882653998133 | -77.147706585928 | 4.5999 | 2025-06-24 12:23:26.281 | on_bicycle | 100 | 3.0935116721951 |